Time;durP1;ratioP1;P1;durP2;ratioP2;P2;SDS_P1;SDS_P2;PMS_P1;PMS_P2;Temp;Humidity;BMP_temperature;BMP_pressure;BME280_temperature;BME280_humidity;BME280_pressure;Samples;Min_cycle;Max_cycle;Signal;HPM_P1;HPM_P2
2022/06/18 00:00:16;;;;;;;5.07;4.13;;;19.90;69.70;;;;;;5139909;27;20090;-62
2022/06/18 00:02:42;;;;;;;4.45;3.58;;;19.90;70.10;;;;;;5145372;27;20172;-62
2022/06/18 00:05:10;;;;;;;3.88;3.22;;;19.90;69.90;;;;;;5145383;27;20082;-62
2022/06/18 00:07:40;;;;;;;4.22;3.50;;;19.80;71.00;;;;;;5151246;27;20035;-62
2022/06/18 00:10:09;;;;;;;4.28;3.58;;;19.80;70.50;;;;;;5145832;27;20068;-62
2022/06/18 00:15:30;;;;;;;8.10;3.97;;;19.80;70.70;;;;;;5126062;27;20648;-62
2022/06/18 00:17:55;;;;;;;5.88;3.90;;;19.80;70.80;;;;;;5144537;27;20084;-62
2022/06/18 00:20:23;;;;;;;6.45;3.55;;;19.70;70.90;;;;;;5138788;27;20046;-63
2022/06/18 00:22:57;;;;;;;4.38;3.70;;;19.80;71.10;;;;;;5147433;27;20041;-63
2022/06/18 00:25:33;;;;;;;7.50;4.00;;;19.70;71.30;;;;;;5149502;27;20046;-62
2022/06/18 00:28:00;;;;;;;5.05;3.92;;;19.70;71.50;;;;;;5151400;27;20033;-62
2022/06/18 00:30:27;;;;;;;4.45;3.90;;;19.70;71.90;;;;;;5145253;27;20038;-62
2022/06/18 00:32:53;;;;;;;4.75;4.00;;;19.70;71.80;;;;;;5148208;27;20066;-62
2022/06/18 00:35:19;;;;;;;6.13;4.35;;;19.60;72.00;;;;;;5141391;27;20066;-62
2022/06/18 00:37:48;;;;;;;6.47;4.03;;;19.50;72.20;;;;;;5148446;27;20090;-63
2022/06/18 00:40:26;;;;;;;5.90;3.90;;;19.50;72.70;;;;;;5151563;27;20034;-62
2022/06/18 00:42:52;;;;;;;5.05;4.00;;;19.50;73.10;;;;;;5151512;27;20038;-62
2022/06/18 00:45:25;;;;;;;6.15;4.40;;;19.50;72.90;;;;;;5125510;27;20038;-62
2022/06/18 00:48:08;;;;;;;4.88;4.40;;;19.40;73.20;;;;;;5146920;27;20081;-62
2022/06/18 00:50:46;;;;;;;6.65;4.32;;;19.40;74.00;;;;;;5147844;27;20078;-62
2022/06/18 00:53:36;;;;;;;6.80;3.85;;;19.40;74.00;;;;;;5136440;27;20047;-62
2022/06/18 00:56:12;;;;;;;4.97;4.47;;;19.40;74.80;;;;;;5148493;27;20462;-62
2022/06/18 00:58:48;;;;;;;5.07;4.28;;;19.40;74.00;;;;;;5145316;27;20312;-63
2022/06/18 01:01:21;;;;;;;6.43;4.22;;;19.40;74.50;;;;;;5141351;27;20046;-62
2022/06/18 01:03:47;;;;;;;7.78;4.55;;;19.30;74.60;;;;;;5140576;27;20041;-62
2022/06/18 01:06:27;;;;;;;9.73;4.95;;;19.30;75.00;;;;;;5148626;27;20034;-63
2022/06/18 01:09:00;;;;;;;7.03;5.10;;;19.30;74.70;;;;;;5138107;27;20039;-64
2022/06/18 01:11:28;;;;;;;5.18;4.65;;;19.30;75.00;;;;;;5135700;27;20038;-61
2022/06/18 01:13:54;;;;;;;6.35;5.35;;;19.30;74.90;;;;;;5146546;27;20111;-63
2022/06/18 01:16:21;;;;;;;6.32;4.68;;;19.30;75.20;;;;;;5148673;27;20046;-63
2022/06/18 01:18:49;;;;;;;6.65;4.75;;;19.30;75.30;;;;;;5146296;27;20031;-63
2022/06/18 01:21:32;;;;;;;9.95;5.85;;;19.30;75.60;;;;;;5148124;27;20042;-63
2022/06/18 01:24:22;;;;;;;7.18;5.22;;;19.30;75.40;;;;;;5144211;27;20038;-61
2022/06/18 01:26:51;;;;;;;6.50;5.37;;;19.20;76.00;;;;;;5146756;27;20035;-62
2022/06/18 01:29:18;;;;;;;7.25;5.38;;;19.20;75.30;;;;;;5142657;27;20168;-63
2022/06/18 01:31:45;;;;;;;6.55;5.55;;;19.20;75.70;;;;;;5145638;27;20616;-62
2022/06/18 01:34:11;;;;;;;12.57;5.88;;;19.10;75.90;;;;;;5143524;27;20066;-63
2022/06/18 01:36:38;;;;;;;7.50;5.32;;;19.00;76.30;;;;;;5150660;27;20026;-61
2022/06/18 01:39:09;;;;;;;7.82;5.20;;;19.00;76.50;;;;;;5131192;27;20072;-62
2022/06/18 01:41:52;;;;;;;5.05;4.57;;;19.00;77.00;;;;;;5144237;27;20035;-62
2022/06/18 01:44:38;;;;;;;8.70;5.22;;;18.90;76.90;;;;;;5147308;27;20038;-61
2022/06/18 01:47:12;;;;;;;7.10;5.13;;;18.90;77.60;;;;;;5139490;27;20509;-62
2022/06/18 01:49:48;;;;;;;7.57;5.60;;;18.80;77.50;;;;;;5140415;27;20039;-63
2022/06/18 01:52:17;;;;;;;7.82;5.28;;;18.80;77.80;;;;;;5130654;27;20046;-62
2022/06/18 01:54:48;;;;;;;7.30;5.38;;;18.70;77.80;;;;;;5145014;27;20134;-62
2022/06/18 01:57:25;;;;;;;9.55;5.60;;;18.70;78.30;;;;;;5141425;27;20039;-62
2022/06/18 01:59:55;;;;;;;6.47;5.10;;;18.70;78.50;;;;;;5137680;27;20042;-62
2022/06/18 02:02:20;;;;;;;9.65;5.47;;;18.60;78.70;;;;;;5147869;27;20074;-62
2022/06/18 02:04:46;;;;;;;9.60;5.85;;;18.60;78.70;;;;;;5146851;27;20077;-62
2022/06/18 02:07:14;;;;;;;8.32;5.70;;;18.60;79.00;;;;;;5150467;27;20431;-63
2022/06/18 02:09:51;;;;;;;8.55;5.38;;;18.60;79.10;;;;;;5147440;27;20027;-62
2022/06/18 02:12:24;;;;;;;8.13;5.50;;;18.60;79.40;;;;;;5137988;27;20566;-62
2022/06/18 02:14:57;;;;;;;7.47;6.15;;;18.60;79.20;;;;;;5145097;27;20405;-64
2022/06/18 02:17:25;;;;;;;9.95;6.05;;;18.70;79.30;;;;;;5147428;27;20042;-62
2022/06/18 02:19:57;;;;;;;7.63;6.40;;;18.70;79.10;;;;;;5153112;27;20066;-62
2022/06/18 02:22:31;;;;;;;12.10;5.97;;;18.70;79.60;;;;;;5147576;27;20053;-62
2022/06/18 02:24:57;;;;;;;9.32;5.75;;;18.60;79.50;;;;;;5148874;27;20052;-62
2022/06/18 02:27:23;;;;;;;7.35;6.03;;;18.70;79.40;;;;;;5151432;27;20084;-62
2022/06/18 02:29:49;;;;;;;9.18;5.90;;;18.60;79.70;;;;;;5141706;27;20386;-62
2022/06/18 02:32:23;;;;;;;10.63;5.75;;;18.60;79.70;;;;;;5150434;27;20031;-62
2022/06/18 02:34:48;;;;;;;8.40;6.07;;;18.60;79.80;;;;;;5132487;27;20443;-61
2022/06/18 02:37:22;;;;;;;7.07;6.35;;;18.60;80.00;;;;;;5153154;27;20031;-62
2022/06/18 02:39:55;;;;;;;7.13;5.63;;;18.60;80.50;;;;;;5149205;27;20142;-62
2022/06/18 02:42:21;;;;;;;7.93;5.85;;;18.60;81.00;;;;;;5150983;27;20125;-63
2022/06/18 02:44:47;;;;;;;11.98;6.35;;;18.50;80.70;;;;;;5142233;27;20449;-63
2022/06/18 02:47:14;;;;;;;8.70;6.22;;;18.50;80.80;;;;;;5149190;27;20037;-61
2022/06/18 02:49:48;;;;;;;8.20;6.10;;;18.50;80.90;;;;;;5147161;27;20093;-62
2022/06/18 02:52:13;;;;;;;10.73;6.75;;;18.50;81.20;;;;;;5147742;27;20486;-63
2022/06/18 02:54:40;;;;;;;10.63;6.53;;;18.50;81.20;;;;;;5147729;27;20042;-62
2022/06/18 02:57:14;;;;;;;8.23;6.75;;;18.50;81.20;;;;;;5147410;27;20042;-62
2022/06/18 02:59:41;;;;;;;8.38;6.70;;;18.60;81.50;;;;;;5143364;27;20060;-63
2022/06/18 03:02:06;;;;;;;9.02;6.55;;;18.50;81.20;;;;;;5143062;27;20031;-62
2022/06/18 03:04:32;;;;;;;8.85;7.40;;;18.60;81.40;;;;;;5149594;27;20038;-62
2022/06/18 03:06:57;;;;;;;9.18;7.72;;;18.60;81.40;;;;;;5147505;27;20118;-63
2022/06/18 03:09:23;;;;;;;10.13;7.57;;;18.60;81.60;;;;;;5148840;27;20034;-62
2022/06/18 03:12:06;;;;;;;8.93;7.35;;;18.60;81.70;;;;;;5148884;27;20088;-63
2022/06/18 03:14:32;;;;;;;12.43;8.48;;;18.60;82.00;;;;;;5143471;27;20037;-62
2022/06/18 03:16:59;;;;;;;8.85;7.65;;;18.50;82.20;;;;;;5146750;27;20031;-63
2022/06/18 03:19:39;;;;;;;10.55;8.18;;;18.60;82.40;;;;;;5152055;27;20070;-62
2022/06/18 03:22:16;;;;;;;10.88;8.52;;;18.60;82.60;;;;;;5148718;27;20041;-64
2022/06/18 03:24:42;;;;;;;13.95;7.97;;;18.60;83.60;;;;;;5142001;27;20030;-63
2022/06/18 03:27:09;;;;;;;10.02;8.60;;;18.60;83.40;;;;;;5150960;27;20135;-63
2022/06/18 03:29:35;;;;;;;12.73;8.95;;;18.60;83.30;;;;;;5134421;27;20031;-62
2022/06/18 03:32:01;;;;;;;9.95;8.93;;;18.60;83.20;;;;;;5140376;27;20084;-63
2022/06/18 03:34:27;;;;;;;10.52;8.90;;;18.60;83.70;;;;;;5112013;27;20428;-62
2022/06/18 03:36:53;;;;;;;12.02;8.75;;;18.60;83.80;;;;;;5150447;27;20430;-63
2022/06/18 03:39:19;;;;;;;12.50;8.13;;;18.60;84.00;;;;;;5144517;27;20401;-63
2022/06/18 03:41:44;;;;;;;13.80;8.65;;;18.60;84.10;;;;;;5149932;27;20043;-62
2022/06/18 03:44:10;;;;;;;12.60;8.85;;;18.50;84.30;;;;;;5145569;27;20043;-64
2022/06/18 03:46:40;;;;;;;13.48;10.15;;;18.50;84.70;;;;;;5150188;27;20037;-62
2022/06/18 03:49:06;;;;;;;17.67;10.38;;;18.50;85.20;;;;;;5145692;27;20030;-64
2022/06/18 03:51:33;;;;;;;16.13;9.52;;;18.50;85.20;;;;;;5149408;27;20039;-63
2022/06/18 03:54:00;;;;;;;12.25;9.23;;;18.50;85.60;;;;;;5128243;27;20413;-62
2022/06/18 03:56:29;;;;;;;14.55;10.25;;;18.50;85.80;;;;;;5151514;27;20145;-62
2022/06/18 03:58:55;;;;;;;12.95;9.60;;;18.50;86.50;;;;;;5147131;27;20398;-64
2022/06/18 04:01:25;;;;;;;12.15;9.52;;;18.50;86.20;;;;;;5147713;27;20039;-63
2022/06/18 04:03:51;;;;;;;13.40;10.30;;;18.50;87.00;;;;;;5148152;27;20054;-63
2022/06/18 04:06:16;;;;;;;11.20;9.93;;;18.50;87.00;;;;;;5147932;27;20412;-62
2022/06/18 04:08:43;;;;;;;12.77;9.35;;;18.50;87.40;;;;;;5150965;27;20043;-62
2022/06/18 04:11:10;;;;;;;13.18;9.23;;;18.50;87.30;;;;;;5122331;27;20046;-62
2022/06/18 04:13:36;;;;;;;12.38;9.95;;;18.50;87.60;;;;;;5148631;27;20062;-63
2022/06/18 04:16:01;;;;;;;12.43;9.05;;;18.50;88.20;;;;;;5144469;27;20510;-62
2022/06/18 04:18:27;;;;;;;12.90;9.85;;;18.50;88.30;;;;;;5153042;27;20539;-62
2022/06/18 04:20:54;;;;;;;14.25;10.10;;;18.50;88.30;;;;;;5146527;27;20052;-62
2022/06/18 04:23:20;;;;;;;16.05;10.23;;;18.50;88.50;;;;;;5148780;27;20030;-62
2022/06/18 04:25:46;;;;;;;12.65;9.38;;;18.50;89.10;;;;;;5146648;27;20443;-62
2022/06/18 04:28:14;;;;;;;14.45;10.02;;;18.50;89.30;;;;;;5150642;27;20276;-62
2022/06/18 04:30:40;;;;;;;15.63;10.63;;;18.60;90.00;;;;;;5145192;27;20042;-62
2022/06/18 04:33:07;;;;;;;16.45;11.00;;;18.60;89.80;;;;;;5142069;27;20035;-63
2022/06/18 04:35:33;;;;;;;15.55;11.23;;;18.60;89.80;;;;;;5144193;27;20406;-63
2022/06/18 04:37:59;;;;;;;14.88;10.57;;;18.60;90.00;;;;;;5145192;27;20034;-63
2022/06/18 04:40:32;;;;;;;13.20;10.68;;;18.70;90.10;;;;;;5147053;27;20034;-63
2022/06/18 04:43:08;;;;;;;14.60;10.23;;;18.70;90.20;;;;;;5150066;27;20177;-62
2022/06/18 04:45:34;;;;;;;17.05;10.95;;;18.70;90.70;;;;;;5141464;27;20039;-63
2022/06/18 04:48:01;;;;;;;18.38;10.57;;;18.80;90.30;;;;;;5148313;27;20083;-63
2022/06/18 04:50:32;;;;;;;15.32;10.45;;;18.80;90.30;;;;;;5148813;27;20436;-62
2022/06/18 04:52:58;;;;;;;15.60;11.35;;;18.90;90.40;;;;;;5143764;27;20039;-62
2022/06/18 04:55:24;;;;;;;16.00;11.85;;;18.90;90.50;;;;;;5145108;27;20091;-63
2022/06/18 04:57:50;;;;;;;12.85;10.10;;;19.00;90.50;;;;;;5150156;27;20065;-63
2022/06/18 05:00:16;;;;;;;17.70;11.55;;;19.10;90.50;;;;;;5147136;27;20089;-63
2022/06/18 05:02:42;;;;;;;17.52;10.60;;;19.10;90.40;;;;;;5146239;27;20053;-64
2022/06/18 05:05:17;;;;;;;19.52;11.50;;;19.20;90.40;;;;;;5132970;27;20478;-61
2022/06/18 05:07:42;;;;;;;16.83;10.98;;;19.30;90.50;;;;;;5129962;27;20034;-63
2022/06/18 05:10:08;;;;;;;16.58;11.40;;;19.40;90.50;;;;;;5138467;27;20535;-63
2022/06/18 05:12:34;;;;;;;17.83;11.02;;;19.40;90.60;;;;;;5141460;27;20398;-62
2022/06/18 05:15:00;;;;;;;20.92;11.00;;;19.50;90.60;;;;;;5140682;27;20039;-63
2022/06/18 05:17:29;;;;;;;13.73;11.02;;;19.60;90.50;;;;;;5147649;27;20401;-64
2022/06/18 05:19:55;;;;;;;18.40;12.27;;;19.70;90.50;;;;;;5147020;27;20599;-63
2022/06/18 05:22:21;;;;;;;16.35;11.23;;;19.70;90.30;;;;;;5144935;27;20528;-63
2022/06/18 05:24:46;;;;;;;16.65;11.23;;;19.80;90.20;;;;;;5139366;27;20038;-63
2022/06/18 05:27:26;;;;;;;21.30;13.02;;;20.00;90.10;;;;;;5146730;27;20118;-62
2022/06/18 05:29:53;;;;;;;21.80;12.15;;;20.10;89.40;;;;;;5145444;27;20059;-63
2022/06/18 05:32:19;;;;;;;17.08;11.10;;;20.10;90.00;;;;;;5144244;27;20042;-63
2022/06/18 05:34:44;;;;;;;18.90;11.88;;;20.20;89.60;;;;;;5142966;27;20030;-63
2022/06/18 05:37:18;;;;;;;15.70;11.10;;;20.30;89.10;;;;;;5143683;27;20055;-62
2022/06/18 05:39:44;;;;;;;15.55;10.65;;;20.40;88.20;;;;;;5147239;27;20066;-64
2022/06/18 05:42:10;;;;;;;19.65;10.30;;;20.40;88.40;;;;;;5145837;27;20035;-62
2022/06/18 05:44:36;;;;;;;23.08;12.60;;;20.50;88.00;;;;;;5120913;27;20053;-63
2022/06/18 05:47:24;;;;;;;18.00;11.13;;;20.60;87.70;;;;;;5147274;27;20478;-62
2022/06/18 05:49:51;;;;;;;19.35;10.82;;;20.70;86.10;;;;;;5147751;27;20428;-63
2022/06/18 05:52:18;;;;;;;16.67;10.45;;;20.80;87.30;;;;;;5153169;27;20288;-62
2022/06/18 05:54:44;;;;;;;16.33;10.23;;;20.90;86.90;;;;;;5145711;27;20129;-65
2022/06/18 05:57:09;;;;;;;14.77;9.80;;;21.00;86.70;;;;;;5140179;27;20564;-64
2022/06/18 05:59:35;;;;;;;16.15;9.95;;;21.20;86.60;;;;;;5152561;27;20146;-62
2022/06/18 06:02:01;;;;;;;13.65;10.40;;;21.30;86.10;;;;;;5148136;27;20099;-63
2022/06/18 06:04:28;;;;;;;13.10;10.13;;;21.40;85.60;;;;;;5125313;27;20050;-63
2022/06/18 06:06:54;;;;;;;18.15;11.05;;;21.50;85.00;;;;;;5150326;27;20030;-63
2022/06/18 06:12:09;;;;;;;15.45;11.73;;;21.70;83.50;;;;;;5144739;27;20054;-63
2022/06/18 06:14:35;;;;;;;17.60;11.13;;;21.80;82.70;;;;;;5145591;27;20039;-64
2022/06/18 06:17:01;;;;;;;16.75;10.57;;;21.90;82.10;;;;;;5146457;27;20035;-63
2022/06/18 06:19:27;;;;;;;13.45;10.27;;;22.10;81.50;;;;;;5148999;27;20043;-63
2022/06/18 06:21:52;;;;;;;14.40;9.85;;;22.10;81.30;;;;;;5152034;27;20485;-64
2022/06/18 06:24:18;;;;;;;17.55;10.55;;;22.30;81.10;;;;;;5130683;27;20533;-64
2022/06/18 06:26:43;;;;;;;19.27;11.18;;;22.40;79.90;;;;;;5157006;27;20041;-64
2022/06/18 06:29:10;;;;;;;16.88;9.63;;;22.40;79.80;;;;;;5140072;27;20041;-64
2022/06/18 06:31:35;;;;;;;15.35;9.93;;;22.50;79.10;;;;;;5160064;27;20057;-63
2022/06/18 06:34:01;;;;;;;19.75;12.05;;;22.70;78.70;;;;;;5142634;27;20492;-64
2022/06/18 06:36:27;;;;;;;14.65;9.45;;;22.60;78.30;;;;;;5146278;27;20041;-63
2022/06/18 06:38:52;;;;;;;20.95;11.52;;;22.70;77.70;;;;;;5147843;27;20532;-64
2022/06/18 06:41:23;;;;;;;15.25;9.52;;;22.80;77.60;;;;;;5150074;27;20180;-64
2022/06/18 06:43:49;;;;;;;12.70;8.43;;;22.90;76.20;;;;;;5125066;27;20042;-65
2022/06/18 06:46:15;;;;;;;17.73;9.82;;;23.00;76.60;;;;;;5148089;27;20027;-65
2022/06/18 06:48:41;;;;;;;15.63;9.15;;;23.20;76.10;;;;;;5150316;27;20029;-63
2022/06/18 06:51:19;;;;;;;12.98;7.53;;;23.40;75.30;;;;;;5119507;27;20043;-65
2022/06/18 06:53:45;;;;;;;12.32;7.75;;;23.50;73.40;;;;;;5149655;27;20150;-64
2022/06/18 06:58:57;;;;;;;16.35;8.65;;;23.70;73.50;;;;;;5135747;27;20500;-64
2022/06/18 07:01:23;;;;;;;17.58;9.60;;;23.90;73.20;;;;;;5150641;27;20075;-64
2022/06/18 07:03:48;;;;;;;14.00;8.82;;;23.90;72.70;;;;;;5143452;27;20359;-65
2022/06/18 07:06:16;;;;;;;15.20;7.70;;;24.10;72.20;;;;;;5135616;27;20039;-64
2022/06/18 07:08:43;;;;;;;13.10;7.68;;;24.30;71.60;;;;;;5152868;27;20042;-65
2022/06/18 07:11:09;;;;;;;11.88;6.60;;;24.50;70.10;;;;;;5154048;27;20043;-64
2022/06/18 07:13:35;;;;;;;10.15;6.72;;;24.50;69.40;;;;;;5142473;27;20039;-64
2022/06/18 07:16:01;;;;;;;11.32;6.72;;;24.60;68.30;;;;;;5137275;27;20043;-65
2022/06/18 07:18:31;;;;;;;11.88;7.53;;;24.70;67.70;;;;;;5151884;27;20045;-64
2022/06/18 07:21:00;;;;;;;12.38;6.68;;;24.70;66.80;;;;;;5150104;27;20095;-64
2022/06/18 07:23:26;;;;;;;11.48;7.00;;;24.70;66.20;;;;;;5143079;27;20022;-66
2022/06/18 07:25:52;;;;;;;11.45;5.55;;;24.80;66.90;;;;;;5145008;27;20049;-64
2022/06/18 07:28:18;;;;;;;10.35;5.95;;;25.00;65.70;;;;;;5135887;27;20478;-63
2022/06/18 07:30:46;;;;;;;10.52;6.63;;;25.30;65.20;;;;;;5150948;27;20130;-64
2022/06/18 07:33:15;;;;;;;15.90;7.75;;;25.40;64.10;;;;;;5141817;27;20034;-65
2022/06/18 07:35:41;;;;;;;12.57;7.50;;;25.60;62.20;;;;;;5152560;27;20066;-64
2022/06/18 07:38:06;;;;;;;11.02;6.97;;;25.70;62.50;;;;;;5153070;27;20467;-64
2022/06/18 07:40:44;;;;;;;15.05;6.53;;;25.80;61.80;;;;;;5153092;27;20043;-64
2022/06/18 07:43:30;;;;;;;8.30;5.18;;;26.00;61.10;;;;;;5150953;27;20038;-64
2022/06/18 07:45:56;;;;;;;10.95;6.25;;;26.10;61.20;;;;;;5135220;27;20484;-63
2022/06/18 07:48:22;;;;;;;11.13;7.22;;;26.20;61.40;;;;;;5153033;27;20042;-65
2022/06/18 07:50:49;;;;;;;18.52;7.38;;;26.50;60.70;;;;;;5153056;27;20068;-65
2022/06/18 07:53:22;;;;;;;9.18;6.20;;;26.40;60.40;;;;;;5155082;27;20594;-62
2022/06/18 07:55:49;;;;;;;10.18;6.72;;;26.60;60.10;;;;;;5153217;27;20043;-62
2022/06/18 07:58:15;;;;;;;11.00;7.22;;;26.80;59.40;;;;;;5155129;27;20038;-62
2022/06/18 08:00:42;;;;;;;15.55;7.72;;;26.90;59.20;;;;;;5151092;27;20137;-62
2022/06/18 08:03:13;;;;;;;11.65;6.72;;;26.90;58.80;;;;;;5152328;27;20414;-63
2022/06/18 08:05:40;;;;;;;10.93;5.18;;;27.00;58.20;;;;;;5154876;27;20504;-62
2022/06/18 08:08:06;;;;;;;7.40;4.60;;;27.20;58.20;;;;;;5155198;27;20030;-62
2022/06/18 08:10:37;;;;;;;7.68;4.82;;;27.40;57.50;;;;;;5154263;27;20066;-63
2022/06/18 08:13:03;;;;;;;8.15;4.10;;;27.60;56.60;;;;;;5143363;27;20035;-62
2022/06/18 08:15:30;;;;;;;7.70;3.92;;;27.70;56.60;;;;;;5130974;27;20371;-63
2022/06/18 08:17:56;;;;;;;8.35;4.55;;;27.80;56.30;;;;;;5117442;27;20444;-62
2022/06/18 08:20:22;;;;;;;8.23;4.88;;;28.00;55.50;;;;;;5153381;27;20082;-63
2022/06/18 08:22:49;;;;;;;11.63;5.38;;;28.10;55.30;;;;;;5152326;27;20035;-63
2022/06/18 08:25:18;;;;;;;8.90;4.60;;;28.40;54.80;;;;;;5153228;27;20386;-64
2022/06/18 08:27:46;;;;;;;12.05;5.13;;;28.40;54.80;;;;;;5133325;27;20034;-63
2022/06/18 08:30:12;;;;;;;9.98;4.85;;;28.80;53.80;;;;;;5149630;27;20050;-62
2022/06/18 08:32:38;;;;;;;8.90;4.18;;;29.00;53.70;;;;;;5150997;27;20504;-62
2022/06/18 08:35:05;;;;;;;8.13;4.03;;;29.20;53.10;;;;;;5151378;27;20039;-62
2022/06/18 08:37:32;;;;;;;10.18;4.40;;;29.20;52.80;;;;;;5146427;27;20035;-63
2022/06/18 08:39:59;;;;;;;12.48;4.78;;;29.30;52.70;;;;;;5149379;27;20039;-63
2022/06/18 08:42:50;;;;;;;9.38;4.68;;;29.50;52.20;;;;;;5153432;27;20050;-62
2022/06/18 08:45:36;;;;;;;10.00;4.28;;;29.60;51.60;;;;;;5147500;27;20089;-64
2022/06/18 08:48:08;;;;;;;8.02;4.30;;;29.60;52.10;;;;;;5133928;27;20556;-63
2022/06/18 08:50:45;;;;;;;12.68;4.65;;;29.90;50.80;;;;;;5154284;27;20034;-64
2022/06/18 08:53:33;;;;;;;9.43;4.03;;;30.10;50.70;;;;;;5136777;27;20459;-62
2022/06/18 08:56:07;;;;;;;7.28;4.05;;;30.40;49.30;;;;;;5152448;27;20049;-63
2022/06/18 08:58:38;;;;;;;7.20;3.55;;;30.30;49.60;;;;;;5150948;27;20550;-63
2022/06/18 09:01:15;;;;;;;9.85;4.90;;;30.40;50.00;;;;;;5149813;27;20114;-63
2022/06/18 09:03:54;;;;;;;5.97;4.45;;;30.80;49.30;;;;;;5150857;27;20406;-63
2022/06/18 09:06:37;;;;;;;11.07;5.20;;;31.30;48.30;;;;;;5151916;27;20034;-63
2022/06/18 09:09:33;;;;;;;7.47;4.90;;;31.50;47.90;;;;;;5134424;27;20146;-62
2022/06/18 09:12:17;;;;;;;7.60;3.92;;;31.80;47.10;;;;;;5149770;27;20170;-63
2022/06/18 09:14:52;;;;;;;6.50;3.40;;;31.80;47.20;;;;;;5146654;27;20062;-63
2022/06/18 09:18:09;;;;;;;5.72;3.20;;;32.10;47.00;;;;;;5135754;27;20060;-63
2022/06/18 09:20:44;;;;;;;5.47;3.00;;;32.30;45.80;;;;;;5146727;27;20054;-64
2022/06/18 09:23:21;;;;;;;8.00;3.28;;;32.60;45.80;;;;;;5152138;27;20035;-63
2022/06/18 09:25:50;;;;;;;8.05;3.55;;;32.60;44.70;;;;;;5153563;27;20808;-63
2022/06/18 09:28:33;;;;;;;7.30;3.00;;;32.80;44.60;;;;;;5156163;27;20038;-64
2022/06/18 09:31:05;;;;;;;4.53;2.80;;;33.00;44.60;;;;;;5153519;27;20039;-62
2022/06/18 09:33:55;;;;;;;7.22;2.72;;;33.10;44.30;;;;;;5157232;27;20038;-63
2022/06/18 09:36:26;;;;;;;4.43;2.33;;;33.10;43.90;;;;;;5134272;27;20047;-64
2022/06/18 09:39:01;;;;;;;3.95;2.22;;;33.00;43.50;;;;;;5140423;27;20038;-64
2022/06/18 09:41:39;;;;;;;7.32;2.20;;;32.90;43.10;;;;;;5154886;27;20428;-63
2022/06/18 09:44:08;;;;;;;5.95;2.88;;;33.30;43.10;;;;;;5153130;27;20474;-64
2022/06/18 09:46:53;;;;;;;10.88;3.28;;;33.50;42.70;;;;;;5151894;27;20034;-63
2022/06/18 09:49:18;;;;;;;3.55;2.35;;;33.90;42.10;;;;;;5148610;27;20516;-64
2022/06/18 09:52:05;;;;;;;6.85;2.72;;;33.70;42.40;;;;;;5157323;27;20059;-63
2022/06/18 09:54:44;;;;;;;6.45;2.53;;;33.90;42.30;;;;;;5151083;27;20055;-63
2022/06/18 09:57:12;;;;;;;;;;;34.10;42.20;;;;;;5155022;27;20035;-63
2022/06/18 09:59:43;;;;;;;5.53;2.80;;;33.90;42.80;;;;;;5155492;27;19915;-64
2022/06/18 10:02:26;;;;;;;5.13;2.42;;;34.00;41.90;;;;;;5156421;27;20482;-64
2022/06/18 10:07:41;;;;;;;4.50;2.97;;;34.60;41.10;;;;;;5157223;27;20086;-64
2022/06/18 10:10:17;;;;;;;5.13;2.60;;;34.70;40.10;;;;;;5154324;27;20069;-64
2022/06/18 10:12:48;;;;;;;4.32;2.42;;;34.90;39.50;;;;;;5137075;27;20042;-64
2022/06/18 10:15:17;;;;;;;5.38;2.65;;;35.40;39.50;;;;;;5138264;27;20038;-63
2022/06/18 10:18:03;;;;;;;5.22;2.20;;;35.60;38.60;;;;;;5154644;27;20459;-64
2022/06/18 10:20:52;;;;;;;4.57;2.15;;;35.30;38.90;;;;;;5120288;27;20074;-64
2022/06/18 10:23:39;;;;;;;4.70;2.70;;;35.30;39.40;;;;;;5154120;27;20379;-63
2022/06/18 10:26:13;;;;;;;4.28;2.30;;;35.60;38.70;;;;;;5151912;27;20030;-64
2022/06/18 10:29:07;;;;;;;3.60;2.17;;;35.60;38.80;;;;;;5154476;27;20118;-64
2022/06/18 10:31:49;;;;;;;5.00;2.20;;;36.20;38.20;;;;;;5154745;27;20083;-64
2022/06/18 10:34:36;;;;;;;4.28;2.05;;;36.60;38.40;;;;;;5142519;27;20048;-64
2022/06/18 10:37:34;;;;;;;4.70;1.98;;;36.70;37.40;;;;;;5154263;27;20034;-64
2022/06/18 10:40:20;;;;;;;4.55;1.50;;;36.20;38.60;;;;;;5134538;27;20050;-65
2022/06/18 10:42:52;;;;;;;2.17;1.65;;;36.10;38.90;;;;;;5155608;27;20332;-64
2022/06/18 10:45:38;;;;;;;4.30;1.90;;;36.30;38.40;;;;;;5140953;27;20062;-63
2022/06/18 10:48:10;;;;;;;5.50;1.60;;;36.00;37.80;;;;;;5153565;27;20031;-63
2022/06/18 10:50:44;;;;;;;2.60;1.58;;;36.20;37.80;;;;;;5135206;27;20035;-64
2022/06/18 10:53:14;;;;;;;2.50;1.40;;;35.60;38.30;;;;;;5154108;27;20111;-63
2022/06/18 10:55:40;;;;;;;3.08;1.58;;;34.70;39.30;;;;;;5151871;27;20103;-63
2022/06/18 10:58:11;;;;;;;3.78;1.38;;;34.10;40.30;;;;;;5155547;27;20042;-63
2022/06/18 11:00:38;;;;;;;3.53;1.35;;;33.30;41.60;;;;;;5148246;27;20047;-64
2022/06/18 11:03:19;;;;;;;2.17;1.55;;;33.20;42.30;;;;;;5147226;27;20504;-64
2022/06/18 11:05:47;;;;;;;3.92;1.40;;;33.00;41.90;;;;;;5153614;27;20066;-64
2022/06/18 11:08:23;;;;;;;1.33;1.05;;;32.60;43.30;;;;;;5156386;27;20189;-63
2022/06/18 11:10:51;;;;;;;3.22;1.15;;;32.40;44.30;;;;;;5132519;27;20387;-62
2022/06/18 11:13:27;;;;;;;2.00;1.27;;;32.10;44.90;;;;;;5131381;27;20052;-63
2022/06/18 11:16:16;;;;;;;2.65;1.40;;;31.90;45.10;;;;;;5149472;27;20185;-64
2022/06/18 11:18:56;;;;;;;2.67;1.40;;;31.80;45.40;;;;;;5148828;27;20050;-63
2022/06/18 11:21:43;;;;;;;2.17;1.48;;;31.50;45.80;;;;;;5146932;27;20035;-64
2022/06/18 11:24:12;;;;;;;4.25;1.67;;;31.10;45.90;;;;;;5134117;27;20137;-63
2022/06/18 11:26:43;;;;;;;4.10;1.50;;;30.50;46.10;;;;;;5152595;27;20031;-64
2022/06/18 11:29:24;;;;;;;3.65;1.38;;;30.50;46.60;;;;;;5146461;27;20043;-63
2022/06/18 11:31:53;;;;;;;2.45;1.25;;;30.40;48.20;;;;;;5130914;27;20328;-64
2022/06/18 11:34:25;;;;;;;2.33;1.33;;;30.30;48.30;;;;;;5144791;27;20123;-64
2022/06/18 11:36:57;;;;;;;2.45;1.17;;;30.30;48.20;;;;;;5138499;27;20038;-64
2022/06/18 11:39:25;;;;;;;4.70;1.65;;;30.40;48.20;;;;;;5153375;27;20397;-64
2022/06/18 11:41:55;;;;;;;2.45;1.60;;;30.40;48.10;;;;;;5150568;27;20055;-64
2022/06/18 11:44:25;;;;;;;3.13;1.42;;;30.30;48.30;;;;;;5153288;27;20121;-63
2022/06/18 11:47:17;;;;;;;4.82;1.52;;;30.40;48.20;;;;;;5144891;27;20741;-63
2022/06/18 11:49:59;;;;;;;3.30;1.20;;;30.50;48.30;;;;;;5146157;27;20102;-63
2022/06/18 11:52:37;;;;;;;1.83;1.10;;;30.60;48.10;;;;;;5139872;27;20026;-64
2022/06/18 11:55:22;;;;;;;2.78;1.45;;;30.40;48.50;;;;;;5147371;27;20427;-63
2022/06/18 11:57:59;;;;;;;1.83;1.00;;;30.40;47.80;;;;;;5156169;27;20043;-64
2022/06/18 12:00:31;;;;;;;3.20;1.20;;;30.60;48.50;;;;;;5152638;27;20121;-63
2022/06/18 12:03:31;;;;;;;1.73;1.10;;;30.80;47.90;;;;;;5150836;27;20037;-64
2022/06/18 12:06:00;;;;;;;1.70;1.05;;;31.00;48.70;;;;;;5153614;27;20428;-63
2022/06/18 12:08:26;;;;;;;2.75;1.30;;;31.10;47.70;;;;;;5153546;27;20035;-63
2022/06/18 12:11:04;;;;;;;3.92;1.08;;;31.40;47.50;;;;;;5145231;27;20051;-64
2022/06/18 12:13:46;;;;;;;1.80;0.90;;;31.70;46.90;;;;;;5149254;27;20042;-64
2022/06/18 12:16:38;;;;;;;3.10;1.25;;;32.20;46.40;;;;;;5150988;27;20074;-64
2022/06/18 12:19:41;;;;;;;1.10;0.82;;;32.80;45.40;;;;;;5141747;27;20063;-64
2022/06/18 12:22:24;;;;;;;3.22;1.05;;;33.80;44.70;;;;;;5152326;27;20087;-63
2022/06/18 12:25:20;;;;;;;2.08;1.30;;;34.30;43.40;;;;;;5146442;27;20372;-62
2022/06/18 12:27:58;;;;;;;1.75;0.95;;;34.80;42.20;;;;;;5141687;27;20052;-63
2022/06/18 12:30:36;;;;;;;3.38;1.05;;;35.40;40.80;;;;;;5116180;27;20031;-64
2022/06/18 12:33:13;;;;;;;4.38;1.27;;;36.30;39.70;;;;;;5144818;27;20053;-64
2022/06/18 12:36:13;;;;;;;2.38;1.10;;;37.00;39.20;;;;;;5146812;27;20050;-64
2022/06/18 12:38:39;;;;;;;;;;;37.60;38.00;;;;;;5136178;27;20109;-63
2022/06/18 12:41:23;;;;;;;2.88;1.10;;;37.00;38.00;;;;;;5134624;27;20032;-64
2022/06/18 12:44:03;;;;;;;1.83;1.10;;;37.30;37.90;;;;;;5150776;27;20038;-63
2022/06/18 12:46:41;;;;;;;2.40;0.93;;;37.70;36.90;;;;;;5151113;27;20041;-63
2022/06/18 12:49:10;;;;;;;4.07;1.48;;;38.10;36.50;;;;;;5153121;27;20041;-63
2022/06/18 12:51:53;;;;;;;1.67;1.02;;;38.20;35.80;;;;;;5150187;27;20481;-63
2022/06/18 12:54:28;;;;;;;2.58;1.20;;;38.20;36.10;;;;;;5134800;27;20475;-63
2022/06/18 12:57:34;;;;;;;2.30;1.00;;;38.20;35.60;;;;;;5152314;27;20121;-63
2022/06/18 13:00:18;;;;;;;3.28;1.30;;;37.00;35.30;;;;;;5151176;27;20038;-63
2022/06/18 13:02:54;;;;;;;2.45;0.93;;;35.30;37.80;;;;;;5149400;27;20405;-63
2022/06/18 13:05:43;;;;;;;2.22;1.05;;;34.10;39.80;;;;;;5117339;27;20083;-63
2022/06/18 13:08:48;;;;;;;1.00;0.85;;;33.00;42.20;;;;;;5150936;27;20119;-64
2022/06/18 13:11:34;;;;;;;4.13;1.20;;;32.20;42.90;;;;;;5150871;27;20035;-63
2022/06/18 13:14:07;;;;;;;3.60;1.33;;;31.70;44.00;;;;;;5150510;27;20148;-62
2022/06/18 13:16:44;;;;;;;3.33;0.85;;;31.10;44.90;;;;;;5151392;27;20046;-63